sensor_id;sensor_type;location;lat;lon;timestamp;temperature;humidity
1337;DHT22;662;48.814;9.318;2024-01-30T00:01:15;5.70;64.50
1337;DHT22;662;48.814;9.318;2024-01-30T00:03:41;5.70;64.50
1337;DHT22;662;48.814;9.318;2024-01-30T00:06:08;5.60;64.40
1337;DHT22;662;48.814;9.318;2024-01-30T00:08:34;5.60;64.40
1337;DHT22;662;48.814;9.318;2024-01-30T00:10:59;5.60;64.40
1337;DHT22;662;48.814;9.318;2024-01-30T00:13:25;5.70;64.40
1337;DHT22;662;48.814;9.318;2024-01-30T00:15:50;5.60;64.30
1337;DHT22;662;48.814;9.318;2024-01-30T00:18:16;5.60;64.30
1337;DHT22;662;48.814;9.318;2024-01-30T00:20:41;5.60;64.30
1337;DHT22;662;48.814;9.318;2024-01-30T00:23:08;5.50;64.20
1337;DHT22;662;48.814;9.318;2024-01-30T00:25:34;5.50;64.30
1337;DHT22;662;48.814;9.318;2024-01-30T00:28:00;5.50;64.80
1337;DHT22;662;48.814;9.318;2024-01-30T00:30:25;5.50;64.60
1337;DHT22;662;48.814;9.318;2024-01-30T00:32:51;5.50;64.70
1337;DHT22;662;48.814;9.318;2024-01-30T00:35:16;5.40;64.80
1337;DHT22;662;48.814;9.318;2024-01-30T00:37:42;5.40;64.80
1337;DHT22;662;48.814;9.318;2024-01-30T00:40:08;5.50;65.00
1337;DHT22;662;48.814;9.318;2024-01-30T00:42:35;5.50;64.90
1337;DHT22;662;48.814;9.318;2024-01-30T00:45:01;5.50;65.60
1337;DHT22;662;48.814;9.318;2024-01-30T00:47:27;5.50;64.90
1337;DHT22;662;48.814;9.318;2024-01-30T00:49:54;5.50;65.50
1337;DHT22;662;48.814;9.318;2024-01-30T00:52:20;5.50;64.80
1337;DHT22;662;48.814;9.318;2024-01-30T00:54:45;5.50;64.70
1337;DHT22;662;48.814;9.318;2024-01-30T00:57:11;5.50;64.70
1337;DHT22;662;48.814;9.318;2024-01-30T00:59:36;5.50;64.70
1337;DHT22;662;48.814;9.318;2024-01-30T01:02:02;5.50;64.80
1337;DHT22;662;48.814;9.318;2024-01-30T01:04:28;5.50;64.60
1337;DHT22;662;48.814;9.318;2024-01-30T01:06:53;5.50;64.50
1337;DHT22;662;48.814;9.318;2024-01-30T01:09:19;5.50;64.40
1337;DHT22;662;48.814;9.318;2024-01-30T01:11:44;5.50;64.40
1337;DHT22;662;48.814;9.318;2024-01-30T01:14:10;5.50;64.30
1337;DHT22;662;48.814;9.318;2024-01-30T01:16:35;5.50;64.20
1337;DHT22;662;48.814;9.318;2024-01-30T01:19:01;5.50;64.20
1337;DHT22;662;48.814;9.318;2024-01-30T01:21:27;5.40;64.20
1337;DHT22;662;48.814;9.318;2024-01-30T01:23:52;5.40;64.20
1337;DHT22;662;48.814;9.318;2024-01-30T01:26:18;5.40;64.40
1337;DHT22;662;48.814;9.318;2024-01-30T01:28:43;5.40;64.40
1337;DHT22;662;48.814;9.318;2024-01-30T01:31:09;5.40;64.30
1337;DHT22;662;48.814;9.318;2024-01-30T01:33:35;5.40;64.40
1337;DHT22;662;48.814;9.318;2024-01-30T01:36:02;5.40;64.50
1337;DHT22;662;48.814;9.318;2024-01-30T01:38:28;5.40;64.50
1337;DHT22;662;48.814;9.318;2024-01-30T01:40:54;5.40;64.50
1337;DHT22;662;48.814;9.318;2024-01-30T01:43:19;5.40;64.50
1337;DHT22;662;48.814;9.318;2024-01-30T01:45:45;5.40;64.50
1337;DHT22;662;48.814;9.318;2024-01-30T01:48:11;5.40;64.50
1337;DHT22;662;48.814;9.318;2024-01-30T01:50:38;5.40;64.40
1337;DHT22;662;48.814;9.318;2024-01-30T01:53:05;5.30;64.30
1337;DHT22;662;48.814;9.318;2024-01-30T01:55:33;5.30;64.30
1337;DHT22;662;48.814;9.318;2024-01-30T01:57:59;5.30;64.30
1337;DHT22;662;48.814;9.318;2024-01-30T02:00:25;5.30;64.40
1337;DHT22;662;48.814;9.318;2024-01-30T02:02:52;5.20;64.30
1337;DHT22;662;48.814;9.318;2024-01-30T02:05:19;5.20;64.30
1337;DHT22;662;48.814;9.318;2024-01-30T02:07:45;5.20;64.40
1337;DHT22;662;48.814;9.318;2024-01-30T02:10:11;5.20;64.50
1337;DHT22;662;48.814;9.318;2024-01-30T02:12:37;5.20;64.50
1337;DHT22;662;48.814;9.318;2024-01-30T02:15:03;5.10;64.40
1337;DHT22;662;48.814;9.318;2024-01-30T02:17:30;5.10;64.40
1337;DHT22;662;48.814;9.318;2024-01-30T02:19:56;5.10;64.50
1337;DHT22;662;48.814;9.318;2024-01-30T02:22:22;5.00;64.50
1337;DHT22;662;48.814;9.318;2024-01-30T02:24:48;5.00;64.60
1337;DHT22;662;48.814;9.318;2024-01-30T02:27:14;5.00;64.60
1337;DHT22;662;48.814;9.318;2024-01-30T02:29:40;5.00;64.60
1337;DHT22;662;48.814;9.318;2024-01-30T02:32:06;5.00;64.70
1337;DHT22;662;48.814;9.318;2024-01-30T02:34:33;4.90;64.60
1337;DHT22;662;48.814;9.318;2024-01-30T02:36:59;5.00;64.80
1337;DHT22;662;48.814;9.318;2024-01-30T02:39:25;4.90;64.60
1337;DHT22;662;48.814;9.318;2024-01-30T02:41:51;4.90;64.70
1337;DHT22;662;48.814;9.318;2024-01-30T02:44:16;4.90;64.60
1337;DHT22;662;48.814;9.318;2024-01-30T02:46:42;4.90;64.70
1337;DHT22;662;48.814;9.318;2024-01-30T02:49:08;4.90;64.80
1337;DHT22;662;48.814;9.318;2024-01-30T02:51:33;4.80;64.70
1337;DHT22;662;48.814;9.318;2024-01-30T02:53:59;4.80;64.70
1337;DHT22;662;48.814;9.318;2024-01-30T02:56:24;4.80;64.70
1337;DHT22;662;48.814;9.318;2024-01-30T02:58:50;4.80;64.90
1337;DHT22;662;48.814;9.318;2024-01-30T03:01:16;4.80;64.90
1337;DHT22;662;48.814;9.318;2024-01-30T03:03:41;4.80;64.90
1337;DHT22;662;48.814;9.318;2024-01-30T03:06:08;4.80;65.00
1337;DHT22;662;48.814;9.318;2024-01-30T03:08:35;4.70;64.90
1337;DHT22;662;48.814;9.318;2024-01-30T03:11:00;4.70;64.90
1337;DHT22;662;48.814;9.318;2024-01-30T03:13:26;4.70;64.80
1337;DHT22;662;48.814;9.318;2024-01-30T03:15:52;4.70;64.80
1337;DHT22;662;48.814;9.318;2024-01-30T03:18:18;4.70;64.90
1337;DHT22;662;48.814;9.318;2024-01-30T03:20:43;4.70;65.10
1337;DHT22;662;48.814;9.318;2024-01-30T03:23:09;4.70;65.10
1337;DHT22;662;48.814;9.318;2024-01-30T03:25:35;4.70;65.10
1337;DHT22;662;48.814;9.318;2024-01-30T03:28:00;4.60;65.10
1337;DHT22;662;48.814;9.318;2024-01-30T03:30:26;4.60;65.20
1337;DHT22;662;48.814;9.318;2024-01-30T03:32:52;4.60;65.20
1337;DHT22;662;48.814;9.318;2024-01-30T03:35:19;4.60;65.20
1337;DHT22;662;48.814;9.318;2024-01-30T03:37:44;4.60;65.20
1337;DHT22;662;48.814;9.318;2024-01-30T03:40:10;4.50;65.00
1337;DHT22;662;48.814;9.318;2024-01-30T03:42:36;4.50;65.20
1337;DHT22;662;48.814;9.318;2024-01-30T03:45:02;4.50;65.20
1337;DHT22;662;48.814;9.318;2024-01-30T03:47:28;4.50;65.20
1337;DHT22;662;48.814;9.318;2024-01-30T03:49:53;4.40;65.20
1337;DHT22;662;48.814;9.318;2024-01-30T03:52:19;4.40;65.30
1337;DHT22;662;48.814;9.318;2024-01-30T03:54:44;4.40;65.30
1337;DHT22;662;48.814;9.318;2024-01-30T03:57:10;4.40;65.30
1337;DHT22;662;48.814;9.318;2024-01-30T03:59:36;4.40;65.40
1337;DHT22;662;48.814;9.318;2024-01-30T04:02:01;4.40;65.40
1337;DHT22;662;48.814;9.318;2024-01-30T04:04:27;4.40;65.40
1337;DHT22;662;48.814;9.318;2024-01-30T04:06:53;4.40;65.40
1337;DHT22;662;48.814;9.318;2024-01-30T04:09:18;4.40;65.50
1337;DHT22;662;48.814;9.318;2024-01-30T04:11:44;4.30;65.40
1337;DHT22;662;48.814;9.318;2024-01-30T04:14:10;4.40;65.50
1337;DHT22;662;48.814;9.318;2024-01-30T04:16:35;4.40;65.60
1337;DHT22;662;48.814;9.318;2024-01-30T04:19:01;4.40;65.50
1337;DHT22;662;48.814;9.318;2024-01-30T04:21:27;4.30;65.40
1337;DHT22;662;48.814;9.318;2024-01-30T04:23:53;4.30;65.40
1337;DHT22;662;48.814;9.318;2024-01-30T04:26:18;4.30;65.40
1337;DHT22;662;48.814;9.318;2024-01-30T04:28:45;4.30;65.30
1337;DHT22;662;48.814;9.318;2024-01-30T04:31:11;4.30;65.30
1337;DHT22;662;48.814;9.318;2024-01-30T04:33:36;4.30;65.30
1337;DHT22;662;48.814;9.318;2024-01-30T04:36:03;4.20;65.10
1337;DHT22;662;48.814;9.318;2024-01-30T04:38:29;4.20;65.10
1337;DHT22;662;48.814;9.318;2024-01-30T04:40:54;4.20;65.20
1337;DHT22;662;48.814;9.318;2024-01-30T04:43:20;4.20;65.20
1337;DHT22;662;48.814;9.318;2024-01-30T04:45:47;4.20;65.30
1337;DHT22;662;48.814;9.318;2024-01-30T04:48:12;4.20;65.40
1337;DHT22;662;48.814;9.318;2024-01-30T04:50:38;4.10;65.40
1337;DHT22;662;48.814;9.318;2024-01-30T04:53:04;4.10;65.40
1337;DHT22;662;48.814;9.318;2024-01-30T04:55:29;4.10;65.40
1337;DHT22;662;48.814;9.318;2024-01-30T04:57:55;4.10;65.50
1337;DHT22;662;48.814;9.318;2024-01-30T05:00:21;4.10;65.60
1337;DHT22;662;48.814;9.318;2024-01-30T05:02:46;4.10;65.60
1337;DHT22;662;48.814;9.318;2024-01-30T05:05:12;4.10;65.70
1337;DHT22;662;48.814;9.318;2024-01-30T05:07:40;4.10;65.70
1337;DHT22;662;48.814;9.318;2024-01-30T05:10:06;4.10;66.40
1337;DHT22;662;48.814;9.318;2024-01-30T05:12:32;4.10;65.80
1337;DHT22;662;48.814;9.318;2024-01-30T05:14:58;4.10;65.90
1337;DHT22;662;48.814;9.318;2024-01-30T05:17:23;4.00;65.80
1337;DHT22;662;48.814;9.318;2024-01-30T05:19:49;4.10;66.00
1337;DHT22;662;48.814;9.318;2024-01-30T05:22:15;4.10;66.00
1337;DHT22;662;48.814;9.318;2024-01-30T05:24:41;4.00;65.90
1337;DHT22;662;48.814;9.318;2024-01-30T05:27:10;4.10;66.00
1337;DHT22;662;48.814;9.318;2024-01-30T05:29:38;4.10;66.00
1337;DHT22;662;48.814;9.318;2024-01-30T05:32:04;4.10;66.10
1337;DHT22;662;48.814;9.318;2024-01-30T05:34:31;4.10;66.20
1337;DHT22;662;48.814;9.318;2024-01-30T05:36:56;4.10;66.10
1337;DHT22;662;48.814;9.318;2024-01-30T05:39:22;4.10;66.00
1337;DHT22;662;48.814;9.318;2024-01-30T05:41:48;4.10;66.00
1337;DHT22;662;48.814;9.318;2024-01-30T05:44:13;4.10;66.00
1337;DHT22;662;48.814;9.318;2024-01-30T05:46:39;4.10;66.00
1337;DHT22;662;48.814;9.318;2024-01-30T05:49:04;4.10;66.00
1337;DHT22;662;48.814;9.318;2024-01-30T05:51:30;4.10;66.00
1337;DHT22;662;48.814;9.318;2024-01-30T05:53:55;4.10;66.00
1337;DHT22;662;48.814;9.318;2024-01-30T05:56:21;4.00;65.90
1337;DHT22;662;48.814;9.318;2024-01-30T05:58:47;4.10;66.00
1337;DHT22;662;48.814;9.318;2024-01-30T06:01:13;4.00;65.80
1337;DHT22;662;48.814;9.318;2024-01-30T06:03:38;4.10;66.00
1337;DHT22;662;48.814;9.318;2024-01-30T06:06:04;4.10;66.00
1337;DHT22;662;48.814;9.318;2024-01-30T06:08:30;4.10;66.00
1337;DHT22;662;48.814;9.318;2024-01-30T06:10:56;4.10;66.00
1337;DHT22;662;48.814;9.318;2024-01-30T06:13:21;4.10;66.00
1337;DHT22;662;48.814;9.318;2024-01-30T06:15:47;4.10;66.20
1337;DHT22;662;48.814;9.318;2024-01-30T06:18:12;4.10;66.20
1337;DHT22;662;48.814;9.318;2024-01-30T06:20:38;4.10;66.20
1337;DHT22;662;48.814;9.318;2024-01-30T06:23:04;4.10;66.20
1337;DHT22;662;48.814;9.318;2024-01-30T06:25:29;4.10;66.20
1337;DHT22;662;48.814;9.318;2024-01-30T06:27:55;4.10;66.30
1337;DHT22;662;48.814;9.318;2024-01-30T06:30:21;4.00;66.30
1337;DHT22;662;48.814;9.318;2024-01-30T06:32:49;4.00;66.30
1337;DHT22;662;48.814;9.318;2024-01-30T06:35:15;4.00;66.50
1337;DHT22;662;48.814;9.318;2024-01-30T06:37:42;4.00;66.60
1337;DHT22;662;48.814;9.318;2024-01-30T06:40:08;4.00;66.50
1337;DHT22;662;48.814;9.318;2024-01-30T06:42:34;4.00;66.50
1337;DHT22;662;48.814;9.318;2024-01-30T06:45:00;4.00;66.60
1337;DHT22;662;48.814;9.318;2024-01-30T06:47:25;4.00;66.60
1337;DHT22;662;48.814;9.318;2024-01-30T06:49:51;4.00;66.60
1337;DHT22;662;48.814;9.318;2024-01-30T06:52:17;4.00;66.60
1337;DHT22;662;48.814;9.318;2024-01-30T06:54:42;3.90;66.50
1337;DHT22;662;48.814;9.318;2024-01-30T06:57:08;4.00;66.60
1337;DHT22;662;48.814;9.318;2024-01-30T06:59:37;4.00;66.70
1337;DHT22;662;48.814;9.318;2024-01-30T07:02:08;3.90;66.60
1337;DHT22;662;48.814;9.318;2024-01-30T07:04:34;4.00;66.80
1337;DHT22;662;48.814;9.318;2024-01-30T07:07:00;4.00;66.80
1337;DHT22;662;48.814;9.318;2024-01-30T07:09:26;3.90;66.70
1337;DHT22;662;48.814;9.318;2024-01-30T07:11:53;4.00;66.80
1337;DHT22;662;48.814;9.318;2024-01-30T07:14:20;3.90;66.80
1337;DHT22;662;48.814;9.318;2024-01-30T07:16:46;4.00;66.80
1337;DHT22;662;48.814;9.318;2024-01-30T07:19:12;3.90;66.80
1337;DHT22;662;48.814;9.318;2024-01-30T07:21:37;3.90;66.80
1337;DHT22;662;48.814;9.318;2024-01-30T07:24:05;4.00;67.00
1337;DHT22;662;48.814;9.318;2024-01-30T07:26:31;3.90;66.90
1337;DHT22;662;48.814;9.318;2024-01-30T07:28:57;4.00;67.10
1337;DHT22;662;48.814;9.318;2024-01-30T07:31:22;4.00;67.10
1337;DHT22;662;48.814;9.318;2024-01-30T07:33:48;4.00;67.10
1337;DHT22;662;48.814;9.318;2024-01-30T07:36:14;4.00;67.10
1337;DHT22;662;48.814;9.318;2024-01-30T07:38:40;4.00;67.10
1337;DHT22;662;48.814;9.318;2024-01-30T07:41:06;4.10;67.20
1337;DHT22;662;48.814;9.318;2024-01-30T07:43:31;4.10;67.20
1337;DHT22;662;48.814;9.318;2024-01-30T07:45:57;4.10;67.20
1337;DHT22;662;48.814;9.318;2024-01-30T07:48:23;4.10;67.20
1337;DHT22;662;48.814;9.318;2024-01-30T07:50:48;4.10;67.10
1337;DHT22;662;48.814;9.318;2024-01-30T07:53:14;4.20;67.20
1337;DHT22;662;48.814;9.318;2024-01-30T07:55:39;4.20;67.20
1337;DHT22;662;48.814;9.318;2024-01-30T07:58:05;4.30;67.20
1337;DHT22;662;48.814;9.318;2024-01-30T08:00:31;4.30;67.20
1337;DHT22;662;48.814;9.318;2024-01-30T08:02:56;4.40;67.20
1337;DHT22;662;48.814;9.318;2024-01-30T08:05:23;4.40;67.20
1337;DHT22;662;48.814;9.318;2024-01-30T08:07:49;4.40;67.10
1337;DHT22;662;48.814;9.318;2024-01-30T08:10:15;4.50;67.20
1337;DHT22;662;48.814;9.318;2024-01-30T08:12:41;4.50;67.10
1337;DHT22;662;48.814;9.318;2024-01-30T08:15:07;4.60;67.10
1337;DHT22;662;48.814;9.318;2024-01-30T08:17:33;4.60;67.00
1337;DHT22;662;48.814;9.318;2024-01-30T08:19:59;4.60;66.90
1337;DHT22;662;48.814;9.318;2024-01-30T08:22:25;4.70;66.90
1337;DHT22;662;48.814;9.318;2024-01-30T08:24:50;4.80;67.00
1337;DHT22;662;48.814;9.318;2024-01-30T08:27:16;4.90;67.10
1337;DHT22;662;48.814;9.318;2024-01-30T08:29:42;4.90;67.00
1337;DHT22;662;48.814;9.318;2024-01-30T08:32:07;5.00;66.90
1337;DHT22;662;48.814;9.318;2024-01-30T08:34:33;5.10;66.90
1337;DHT22;662;48.814;9.318;2024-01-30T08:36:59;5.10;66.70
1337;DHT22;662;48.814;9.318;2024-01-30T08:39:25;5.20;66.70
1337;DHT22;662;48.814;9.318;2024-01-30T08:41:51;5.30;66.70
1337;DHT22;662;48.814;9.318;2024-01-30T08:44:17;5.40;66.70
1337;DHT22;662;48.814;9.318;2024-01-30T08:46:46;5.50;66.60
1337;DHT22;662;48.814;9.318;2024-01-30T08:49:12;5.60;66.40
1337;DHT22;662;48.814;9.318;2024-01-30T08:51:39;5.70;66.30
1337;DHT22;662;48.814;9.318;2024-01-30T08:54:05;5.80;66.20
1337;DHT22;662;48.814;9.318;2024-01-30T08:56:31;5.80;66.00
1337;DHT22;662;48.814;9.318;2024-01-30T08:58:56;6.00;66.00
1337;DHT22;662;48.814;9.318;2024-01-30T09:01:22;6.00;65.80
1337;DHT22;662;48.814;9.318;2024-01-30T09:03:47;6.10;65.80
1337;DHT22;662;48.814;9.318;2024-01-30T09:06:13;6.20;65.70
1337;DHT22;662;48.814;9.318;2024-01-30T09:08:39;6.30;65.60
1337;DHT22;662;48.814;9.318;2024-01-30T09:11:14;6.40;65.40
1337;DHT22;662;48.814;9.318;2024-01-30T09:13:40;6.40;65.20
1337;DHT22;662;48.814;9.318;2024-01-30T09:16:07;6.50;65.00
1337;DHT22;662;48.814;9.318;2024-01-30T09:18:32;6.60;65.00
1337;DHT22;662;48.814;9.318;2024-01-30T09:20:58;6.70;64.70
1337;DHT22;662;48.814;9.318;2024-01-30T09:23:24;6.70;64.60
1337;DHT22;662;48.814;9.318;2024-01-30T09:25:50;6.80;64.60
1337;DHT22;662;48.814;9.318;2024-01-30T09:28:17;6.90;64.50
1337;DHT22;662;48.814;9.318;2024-01-30T09:30:43;7.00;64.30
1337;DHT22;662;48.814;9.318;2024-01-30T09:33:08;7.10;64.20
1337;DHT22;662;48.814;9.318;2024-01-30T09:35:34;7.20;64.00
1337;DHT22;662;48.814;9.318;2024-01-30T09:38:00;7.30;63.90
1337;DHT22;662;48.814;9.318;2024-01-30T09:40:26;7.40;63.70
1337;DHT22;662;48.814;9.318;2024-01-30T09:42:51;7.40;63.40
1337;DHT22;662;48.814;9.318;2024-01-30T09:45:24;7.50;63.30
1337;DHT22;662;48.814;9.318;2024-01-30T09:47:50;7.60;63.30
1337;DHT22;662;48.814;9.318;2024-01-30T09:50:16;7.60;63.10
1337;DHT22;662;48.814;9.318;2024-01-30T09:52:46;7.70;63.10
1337;DHT22;662;48.814;9.318;2024-01-30T09:55:12;7.80;63.00
1337;DHT22;662;48.814;9.318;2024-01-30T09:57:38;7.90;62.80
1337;DHT22;662;48.814;9.318;2024-01-30T10:00:04;7.90;62.60
1337;DHT22;662;48.814;9.318;2024-01-30T10:02:32;8.00;62.40
1337;DHT22;662;48.814;9.318;2024-01-30T10:04:58;8.10;62.20
1337;DHT22;662;48.814;9.318;2024-01-30T10:07:24;8.20;62.20
1337;DHT22;662;48.814;9.318;2024-01-30T10:09:50;8.30;61.80
1337;DHT22;662;48.814;9.318;2024-01-30T10:12:15;8.40;61.70
1337;DHT22;662;48.814;9.318;2024-01-30T10:14:42;8.50;61.60
1337;DHT22;662;48.814;9.318;2024-01-30T10:17:12;8.60;61.40
1337;DHT22;662;48.814;9.318;2024-01-30T10:19:39;8.70;61.20
1337;DHT22;662;48.814;9.318;2024-01-30T10:22:05;8.80;61.70
1337;DHT22;662;48.814;9.318;2024-01-30T10:24:31;8.90;60.80
1337;DHT22;662;48.814;9.318;2024-01-30T10:26:56;9.00;60.40
1337;DHT22;662;48.814;9.318;2024-01-30T10:29:22;9.00;60.00
1337;DHT22;662;48.814;9.318;2024-01-30T10:32:02;9.10;59.90
1337;DHT22;662;48.814;9.318;2024-01-30T10:34:28;9.20;59.90
1337;DHT22;662;48.814;9.318;2024-01-30T10:37:13;9.30;59.90
1337;DHT22;662;48.814;9.318;2024-01-30T10:39:42;9.50;59.90
1337;DHT22;662;48.814;9.318;2024-01-30T10:42:12;9.50;59.80
1337;DHT22;662;48.814;9.318;2024-01-30T10:45:02;9.60;59.60
1337;DHT22;662;48.814;9.318;2024-01-30T10:47:33;9.70;59.50
1337;DHT22;662;48.814;9.318;2024-01-30T10:49:59;9.80;59.40
1337;DHT22;662;48.814;9.318;2024-01-30T10:52:26;9.90;59.30
1337;DHT22;662;48.814;9.318;2024-01-30T10:54:54;10.00;58.30
1337;DHT22;662;48.814;9.318;2024-01-30T10:57:23;10.00;58.10
1337;DHT22;662;48.814;9.318;2024-01-30T10:59:49;10.00;57.90
1337;DHT22;662;48.814;9.318;2024-01-30T11:02:17;10.10;57.90
1337;DHT22;662;48.814;9.318;2024-01-30T11:04:43;10.20;57.90
1337;DHT22;662;48.814;9.318;2024-01-30T11:07:16;10.30;57.80
1337;DHT22;662;48.814;9.318;2024-01-30T11:09:52;10.40;57.70
1337;DHT22;662;48.814;9.318;2024-01-30T11:12:25;10.50;57.40
1337;DHT22;662;48.814;9.318;2024-01-30T11:15:08;10.50;57.10
1337;DHT22;662;48.814;9.318;2024-01-30T11:20:25;10.70;56.90
1337;DHT22;662;48.814;9.318;2024-01-30T11:22:53;10.70;56.80
1337;DHT22;662;48.814;9.318;2024-01-30T11:25:20;10.80;56.70
1337;DHT22;662;48.814;9.318;2024-01-30T11:27:47;10.80;56.60
1337;DHT22;662;48.814;9.318;2024-01-30T11:30:30;10.90;56.60
1337;DHT22;662;48.814;9.318;2024-01-30T11:33:00;11.00;56.60
1337;DHT22;662;48.814;9.318;2024-01-30T11:35:26;11.00;56.40
1337;DHT22;662;48.814;9.318;2024-01-30T11:37:52;11.10;56.30
1337;DHT22;662;48.814;9.318;2024-01-30T11:40:19;11.20;56.30
1337;DHT22;662;48.814;9.318;2024-01-30T11:42:45;11.30;56.30
1337;DHT22;662;48.814;9.318;2024-01-30T11:45:12;11.40;56.20
1337;DHT22;662;48.814;9.318;2024-01-30T11:47:38;11.50;56.10
1337;DHT22;662;48.814;9.318;2024-01-30T11:50:04;11.50;56.00
1337;DHT22;662;48.814;9.318;2024-01-30T11:52:35;11.60;55.90
1337;DHT22;662;48.814;9.318;2024-01-30T11:55:00;11.70;55.80
1337;DHT22;662;48.814;9.318;2024-01-30T11:57:29;11.70;55.70
1337;DHT22;662;48.814;9.318;2024-01-30T11:59:54;11.80;55.50
1337;DHT22;662;48.814;9.318;2024-01-30T12:02:20;11.90;55.40
1337;DHT22;662;48.814;9.318;2024-01-30T12:04:46;12.00;55.30
1337;DHT22;662;48.814;9.318;2024-01-30T12:07:11;12.10;55.10
1337;DHT22;662;48.814;9.318;2024-01-30T12:09:41;12.10;55.00
1337;DHT22;662;48.814;9.318;2024-01-30T12:12:07;12.20;54.80
1337;DHT22;662;48.814;9.318;2024-01-30T12:14:38;12.20;54.60
1337;DHT22;662;48.814;9.318;2024-01-30T12:17:03;12.30;54.50
1337;DHT22;662;48.814;9.318;2024-01-30T12:19:29;12.30;54.20
1337;DHT22;662;48.814;9.318;2024-01-30T12:21:56;12.40;54.20
1337;DHT22;662;48.814;9.318;2024-01-30T12:24:22;12.40;54.00
1337;DHT22;662;48.814;9.318;2024-01-30T12:26:48;12.50;53.90
1337;DHT22;662;48.814;9.318;2024-01-30T12:29:15;12.50;53.80
1337;DHT22;662;48.814;9.318;2024-01-30T12:31:42;12.50;53.70
1337;DHT22;662;48.814;9.318;2024-01-30T12:34:09;12.50;53.50
1337;DHT22;662;48.814;9.318;2024-01-30T12:36:35;12.60;53.50
1337;DHT22;662;48.814;9.318;2024-01-30T12:39:01;12.60;53.40
1337;DHT22;662;48.814;9.318;2024-01-30T12:41:27;12.70;53.40
1337;DHT22;662;48.814;9.318;2024-01-30T12:43:54;12.70;53.30
1337;DHT22;662;48.814;9.318;2024-01-30T12:46:20;12.70;53.20
1337;DHT22;662;48.814;9.318;2024-01-30T12:48:45;12.80;53.20
1337;DHT22;662;48.814;9.318;2024-01-30T12:51:11;12.80;53.10
1337;DHT22;662;48.814;9.318;2024-01-30T12:53:37;12.90;53.10
1337;DHT22;662;48.814;9.318;2024-01-30T12:56:03;12.90;53.00
1337;DHT22;662;48.814;9.318;2024-01-30T12:58:28;12.90;52.90
1337;DHT22;662;48.814;9.318;2024-01-30T13:00:54;13.00;52.90
1337;DHT22;662;48.814;9.318;2024-01-30T13:03:20;13.00;52.80
1337;DHT22;662;48.814;9.318;2024-01-30T13:05:45;13.10;52.70
1337;DHT22;662;48.814;9.318;2024-01-30T13:08:11;13.20;52.60
1337;DHT22;662;48.814;9.318;2024-01-30T13:10:37;13.20;52.40
1337;DHT22;662;48.814;9.318;2024-01-30T13:13:02;13.30;52.40
1337;DHT22;662;48.814;9.318;2024-01-30T13:15:28;13.40;52.40
1337;DHT22;662;48.814;9.318;2024-01-30T13:17:54;13.40;52.20
1337;DHT22;662;48.814;9.318;2024-01-30T13:20:20;13.50;52.10
1337;DHT22;662;48.814;9.318;2024-01-30T13:22:49;13.50;51.90
1337;DHT22;662;48.814;9.318;2024-01-30T13:25:17;13.60;51.90
1337;DHT22;662;48.814;9.318;2024-01-30T13:27:43;13.70;52.00
1337;DHT22;662;48.814;9.318;2024-01-30T13:30:09;13.70;51.90
1337;DHT22;662;48.814;9.318;2024-01-30T13:32:35;13.80;51.90
1337;DHT22;662;48.814;9.318;2024-01-30T13:35:01;13.80;51.80
1337;DHT22;662;48.814;9.318;2024-01-30T13:37:26;13.90;51.70
1337;DHT22;662;48.814;9.318;2024-01-30T13:39:52;13.90;51.80
1337;DHT22;662;48.814;9.318;2024-01-30T13:42:18;14.00;52.00
1337;DHT22;662;48.814;9.318;2024-01-30T13:44:44;14.10;52.10
1337;DHT22;662;48.814;9.318;2024-01-30T13:47:10;14.10;52.10
1337;DHT22;662;48.814;9.318;2024-01-30T13:49:36;14.10;52.20
1337;DHT22;662;48.814;9.318;2024-01-30T13:52:01;14.10;52.20
1337;DHT22;662;48.814;9.318;2024-01-30T13:54:29;14.10;52.30
1337;DHT22;662;48.814;9.318;2024-01-30T13:56:54;14.10;52.40
1337;DHT22;662;48.814;9.318;2024-01-30T13:59:20;14.10;52.50
1337;DHT22;662;48.814;9.318;2024-01-30T14:01:49;14.00;52.40
1337;DHT22;662;48.814;9.318;2024-01-30T14:04:15;14.00;52.50
1337;DHT22;662;48.814;9.318;2024-01-30T14:06:41;14.00;52.50
1337;DHT22;662;48.814;9.318;2024-01-30T14:09:06;14.00;52.50
1337;DHT22;662;48.814;9.318;2024-01-30T14:11:32;13.90;52.40
1337;DHT22;662;48.814;9.318;2024-01-30T14:13:59;13.90;52.40
1337;DHT22;662;48.814;9.318;2024-01-30T14:16:24;13.90;52.50
1337;DHT22;662;48.814;9.318;2024-01-30T14:18:50;13.90;52.50
1337;DHT22;662;48.814;9.318;2024-01-30T14:21:16;13.90;52.40
1337;DHT22;662;48.814;9.318;2024-01-30T14:23:41;13.90;52.30
1337;DHT22;662;48.814;9.318;2024-01-30T14:26:07;13.90;52.30
1337;DHT22;662;48.814;9.318;2024-01-30T14:28:33;13.80;52.10
1337;DHT22;662;48.814;9.318;2024-01-30T14:31:00;13.80;52.00
1337;DHT22;662;48.814;9.318;2024-01-30T14:33:25;13.80;52.00
1337;DHT22;662;48.814;9.318;2024-01-30T14:35:51;13.70;51.90
1337;DHT22;662;48.814;9.318;2024-01-30T14:38:17;13.70;51.90
1337;DHT22;662;48.814;9.318;2024-01-30T14:40:42;13.70;51.90
1337;DHT22;662;48.814;9.318;2024-01-30T14:43:08;13.60;51.90
1337;DHT22;662;48.814;9.318;2024-01-30T14:45:34;13.60;52.00
1337;DHT22;662;48.814;9.318;2024-01-30T14:47:59;13.50;52.00
1337;DHT22;662;48.814;9.318;2024-01-30T14:50:25;13.50;52.10
1337;DHT22;662;48.814;9.318;2024-01-30T14:52:52;13.50;52.30
1337;DHT22;662;48.814;9.318;2024-01-30T14:55:18;13.40;52.40
1337;DHT22;662;48.814;9.318;2024-01-30T14:57:44;13.40;52.60
1337;DHT22;662;48.814;9.318;2024-01-30T15:00:11;13.30;52.80
1337;DHT22;662;48.814;9.318;2024-01-30T15:02:37;13.30;53.00
1337;DHT22;662;48.814;9.318;2024-01-30T15:05:03;13.20;53.30
1337;DHT22;662;48.814;9.318;2024-01-30T15:07:29;13.20;53.70
1337;DHT22;662;48.814;9.318;2024-01-30T15:09:55;13.10;54.10
1337;DHT22;662;48.814;9.318;2024-01-30T15:12:20;13.00;54.30
1337;DHT22;662;48.814;9.318;2024-01-30T15:14:46;13.00;54.70
1337;DHT22;662;48.814;9.318;2024-01-30T15:17:19;12.90;54.90
1337;DHT22;662;48.814;9.318;2024-01-30T15:19:47;12.80;55.00
1337;DHT22;662;48.814;9.318;2024-01-30T15:22:13;12.70;55.20
1337;DHT22;662;48.814;9.318;2024-01-30T15:24:38;12.70;55.40
1337;DHT22;662;48.814;9.318;2024-01-30T15:27:04;12.60;55.50
1337;DHT22;662;48.814;9.318;2024-01-30T15:29:30;12.60;55.70
1337;DHT22;662;48.814;9.318;2024-01-30T15:31:56;12.50;55.80
1337;DHT22;662;48.814;9.318;2024-01-30T15:34:21;12.40;55.80
1337;DHT22;662;48.814;9.318;2024-01-30T15:36:47;12.40;55.90
1337;DHT22;662;48.814;9.318;2024-01-30T15:39:14;12.30;55.80
1337;DHT22;662;48.814;9.318;2024-01-30T15:41:41;12.30;55.90
1337;DHT22;662;48.814;9.318;2024-01-30T15:44:06;12.20;55.80
1337;DHT22;662;48.814;9.318;2024-01-30T15:46:32;12.20;55.90
1337;DHT22;662;48.814;9.318;2024-01-30T15:48:58;12.10;55.90
1337;DHT22;662;48.814;9.318;2024-01-30T15:51:24;12.10;56.00
1337;DHT22;662;48.814;9.318;2024-01-30T15:53:50;12.00;56.10
1337;DHT22;662;48.814;9.318;2024-01-30T15:56:16;12.00;56.20
1337;DHT22;662;48.814;9.318;2024-01-30T15:58:42;12.00;56.40
1337;DHT22;662;48.814;9.318;2024-01-30T16:01:07;11.90;56.50
1337;DHT22;662;48.814;9.318;2024-01-30T16:03:33;11.90;56.60
1337;DHT22;662;48.814;9.318;2024-01-30T16:05:59;11.80;56.70
1337;DHT22;662;48.814;9.318;2024-01-30T16:08:27;11.80;56.90
1337;DHT22;662;48.814;9.318;2024-01-30T16:10:53;11.70;57.50
1337;DHT22;662;48.814;9.318;2024-01-30T16:13:19;11.70;57.20
1337;DHT22;662;48.814;9.318;2024-01-30T16:15:44;11.60;57.30
1337;DHT22;662;48.814;9.318;2024-01-30T16:18:10;11.60;57.40
1337;DHT22;662;48.814;9.318;2024-01-30T16:20:36;11.50;57.50
1337;DHT22;662;48.814;9.318;2024-01-30T16:23:01;11.50;57.60
1337;DHT22;662;48.814;9.318;2024-01-30T16:25:27;11.40;57.70